createdAt,value
2022-10-09T00:05:03.322Z,98331.66
2022-10-09T00:10:07.624Z,98330.72
2022-10-09T00:15:13.192Z,98332.69
2022-10-09T00:20:17.324Z,98337.63
2022-10-09T00:25:20.787Z,98329.16
2022-10-09T00:30:25.780Z,98339.78
2022-10-09T00:35:29.283Z,98335.91
2022-10-09T00:40:32.913Z,98335.66
2022-10-09T00:45:37.844Z,98333.63
2022-10-09T00:50:44.693Z,98338.97
2022-10-09T00:55:48.678Z,98338.91
2022-10-09T01:00:54.196Z,98332.94
2022-10-09T01:06:08.538Z,98336.44
2022-10-09T01:11:22.050Z,98332.94
2022-10-09T01:16:29.278Z,98334.19
2022-10-09T01:21:40.869Z,98342.91
2022-10-09T01:27:06.381Z,98331.53
2022-10-09T01:32:12.688Z,98334.03
2022-10-09T01:37:18.515Z,98330.22
2022-10-09T01:42:27.173Z,98331.91
2022-10-09T01:47:30.605Z,98329.38
2022-10-09T01:52:47.183Z,98322.72
2022-10-09T01:57:57.800Z,98324.16
2022-10-09T02:03:03.638Z,98329.31
2022-10-09T02:08:07.731Z,98326.25
2022-10-09T02:13:13.010Z,98333.41
2022-10-09T02:18:22.181Z,98330.13
2022-10-09T02:23:26.553Z,98329.41
2022-10-09T02:28:31.539Z,98335.19
2022-10-09T02:33:35.698Z,98340.22
2022-10-09T02:38:39.147Z,98339.66
2022-10-09T02:43:44.132Z,98341.19
2022-10-09T02:48:47.712Z,98338.63
2022-10-09T02:53:52.844Z,98335.91
2022-10-09T02:58:57.803Z,98337.63
2022-10-09T03:04:01.627Z,98338.38
2022-10-09T03:09:05.449Z,98330.00
2022-10-09T03:14:10.292Z,98338.69
2022-10-09T03:19:13.670Z,98336.06
2022-10-09T03:24:17.108Z,98338.16
2022-10-09T03:29:22.473Z,98342.66
2022-10-09T03:34:25.880Z,98347.31
2022-10-09T03:39:29.314Z,98348.00
2022-10-09T03:44:34.247Z,98353.50
2022-10-09T03:49:37.718Z,98355.41
2022-10-09T03:54:41.090Z,98344.63
2022-10-09T03:59:45.958Z,98363.97
2022-10-09T04:04:49.457Z,98357.31
2022-10-09T04:09:53.127Z,98362.69
2022-10-09T04:14:58.084Z,98355.69
2022-10-09T04:20:01.682Z,98366.25
2022-10-09T04:25:05.588Z,98356.06
2022-10-09T04:30:11.975Z,98354.66
2022-10-09T04:35:15.712Z,98363.31
2022-10-09T04:40:19.111Z,98357.19
2022-10-09T04:45:23.944Z,98352.06
2022-10-09T04:50:27.488Z,98346.75
2022-10-09T04:55:40.353Z,98351.13
2022-10-09T05:00:46.738Z,98351.31
2022-10-09T05:05:50.257Z,98354.94
2022-10-09T05:10:54.638Z,98352.56
2022-10-09T05:16:02.643Z,98343.63
2022-10-09T05:21:06.454Z,98346.78
2022-10-09T05:26:12.968Z,98362.00
2022-10-09T05:31:20.921Z,98366.34
2022-10-09T05:36:24.368Z,98366.59
2022-10-09T05:41:29.532Z,98362.28
2022-10-09T05:46:34.987Z,98357.69
2022-10-09T05:51:39.860Z,98358.28
2022-10-09T05:56:44.656Z,98358.28
2022-10-09T06:01:51.565Z,98357.81
2022-10-09T06:06:55.013Z,98361.56
2022-10-09T06:11:58.423Z,98361.47
2022-10-09T06:17:03.416Z,98361.19
2022-10-09T06:22:07.184Z,98357.31
2022-10-09T06:27:11.050Z,98364.31
2022-10-09T06:32:15.924Z,98363.19
2022-10-09T06:37:19.610Z,98360.53
2022-10-09T06:42:23.749Z,98370.69
2022-10-09T06:47:34.920Z,98368.81
2022-10-09T06:52:38.347Z,98366.63
2022-10-09T06:57:42.531Z,98370.69
2022-10-09T07:02:48.336Z,98374.28
2022-10-09T07:07:52.273Z,98386.75
2022-10-09T07:12:55.832Z,98391.50
2022-10-09T07:18:00.709Z,98383.28
2022-10-09T07:23:04.357Z,98385.53
2022-10-09T07:28:08.366Z,98386.28
2022-10-09T07:33:13.865Z,98383.88
2022-10-09T07:38:17.552Z,98383.34
2022-10-09T07:43:22.487Z,98390.09
2022-10-09T07:48:27.746Z,98383.16
2022-10-09T07:53:35.700Z,98381.06
2022-10-09T07:58:39.794Z,98368.97
2022-10-09T08:03:44.838Z,98371.19
2022-10-09T08:08:51.086Z,98364.78
2022-10-09T08:13:55.451Z,98371.59
2022-10-09T08:19:01.947Z,98364.06
2022-10-09T08:24:05.804Z,98366.84
2022-10-09T08:29:11.153Z,98358.25
2022-10-09T08:34:20.368Z,98361.41
2022-10-09T08:39:24.131Z,98354.75
2022-10-09T08:44:30.497Z,98349.63
2022-10-09T08:49:45.006Z,98344.81
2022-10-09T08:54:50.239Z,98347.75
2022-10-09T08:59:55.620Z,98342.75
2022-10-09T09:05:20.785Z,98345.34
2022-10-09T09:10:36.377Z,98341.78
2022-10-09T09:15:47.570Z,98336.28
2022-10-09T09:20:55.327Z,98329.19
2022-10-09T09:25:59.741Z,98326.06
2022-10-09T09:31:09.751Z,98329.31
2022-10-09T09:36:24.113Z,98316.38
2022-10-09T09:41:29.170Z,98316.88
2022-10-09T09:46:33.573Z,98305.34
2022-10-09T09:51:38.517Z,98303.88
2022-10-09T09:57:10.436Z,98286.91
2022-10-09T10:02:15.603Z,98278.94
2022-10-09T10:07:31.008Z,98269.03
2022-10-09T10:12:34.833Z,98266.16
2022-10-09T10:17:38.878Z,98252.09
2022-10-09T10:22:48.328Z,98251.06
2022-10-09T10:27:57.443Z,98239.19
2022-10-09T10:33:09.542Z,98243.50
2022-10-09T10:38:19.887Z,98239.16
2022-10-09T10:43:32.016Z,98234.66
2022-10-09T10:48:41.609Z,98224.78
2022-10-09T10:54:04.615Z,98219.09
2022-10-09T10:59:29.445Z,98210.94
2022-10-09T11:04:40.621Z,98204.09
2022-10-09T11:09:58.492Z,98197.53
2022-10-09T11:15:09.299Z,98193.84
2022-10-09T11:20:32.264Z,98185.16
2022-10-09T11:25:43.739Z,98173.63
2022-10-09T11:30:54.709Z,98166.19
2022-10-09T11:36:03.266Z,98160.38
2022-10-09T11:41:11.271Z,98147.72
2022-10-09T11:46:22.671Z,98134.88
2022-10-09T11:51:32.814Z,98126.47
2022-10-09T11:56:37.963Z,98120.56
2022-10-09T12:01:44.961Z,98107.13
2022-10-09T12:06:50.878Z,98101.69
2022-10-09T12:12:07.271Z,98096.16
2022-10-09T12:17:18.653Z,98085.69
2022-10-09T12:22:29.047Z,98079.81
2022-10-09T12:27:37.810Z,98071.25
2022-10-09T12:32:44.545Z,98067.41
2022-10-09T12:37:48.295Z,98060.91
2022-10-09T12:42:54.370Z,98051.88
2022-10-09T12:48:00.410Z,98048.09
2022-10-09T12:53:07.541Z,98045.13
2022-10-09T12:58:17.701Z,98030.31
2022-10-09T13:03:37.701Z,98029.25
2022-10-09T13:08:42.089Z,98019.75
2022-10-09T13:13:51.663Z,98007.91
2022-10-09T13:18:59.138Z,97998.66
2022-10-09T13:24:08.501Z,97999.47
2022-10-09T13:29:14.739Z,97991.50
2022-10-09T13:34:18.890Z,97986.13
2022-10-09T13:39:22.299Z,97973.63
2022-10-09T13:44:27.088Z,97971.50
2022-10-09T13:49:31.403Z,97969.78
2022-10-09T13:54:34.824Z,97963.91
2022-10-09T13:59:41.456Z,97950.75
2022-10-09T14:04:44.739Z,97950.03
2022-10-09T14:09:48.069Z,97941.28
2022-10-09T14:14:53.993Z,97944.16
2022-10-09T14:19:57.383Z,97943.84
2022-10-09T14:25:00.780Z,97942.59
2022-10-09T14:30:06.693Z,97935.59
2022-10-09T14:35:10.805Z,97926.75
2022-10-09T14:40:14.269Z,97916.03
2022-10-09T14:45:19.106Z,97912.22
2022-10-09T14:50:22.503Z,97909.16
2022-10-09T14:55:25.965Z,97906.88
2022-10-09T15:00:30.684Z,97899.03
2022-10-09T15:05:36.156Z,97900.28
2022-10-09T15:10:40.806Z,97897.69
2022-10-09T15:15:45.482Z,97894.19
2022-10-09T15:20:48.924Z,97890.69
2022-10-09T15:25:54.244Z,97889.69
2022-10-09T15:31:01.435Z,97876.94
2022-10-09T15:36:05.183Z,97884.34
2022-10-09T15:41:20.961Z,97874.50
2022-10-09T15:46:26.887Z,97874.03
2022-10-09T15:51:33.212Z,97867.50
2022-10-09T15:56:39.965Z,97867.09
2022-10-09T16:01:45.230Z,97862.44
2022-10-09T16:06:48.761Z,97867.81
2022-10-09T16:11:52.194Z,97860.72
2022-10-09T16:16:57.406Z,97858.50
2022-10-09T16:22:01.258Z,97856.09
2022-10-09T16:27:04.992Z,97862.97
2022-10-09T16:32:10.064Z,97856.09
2022-10-09T16:37:13.445Z,97860.06
2022-10-09T16:42:18.555Z,97863.47
2022-10-09T16:47:26.303Z,97866.13
2022-10-09T16:52:30.020Z,97867.31
2022-10-09T16:57:34.486Z,97870.56
2022-10-09T17:02:41.573Z,97874.25
2022-10-09T17:07:45.127Z,97866.38
2022-10-09T17:12:51.543Z,97868.06
2022-10-09T17:18:01.399Z,97866.94
2022-10-09T17:23:07.352Z,97863.94
2022-10-09T17:28:13.534Z,97871.91
2022-10-09T17:33:20.190Z,97881.47
2022-10-09T17:38:26.486Z,97878.97
2022-10-09T17:43:30.062Z,97870.81
2022-10-09T17:48:38.461Z,97866.00
2022-10-09T17:53:42.984Z,97871.59
2022-10-09T17:58:49.583Z,97867.78
2022-10-09T18:03:59.799Z,97867.88
2022-10-09T18:09:05.993Z,97867.69
2022-10-09T18:14:10.736Z,97866.00
2022-10-09T18:19:19.757Z,97871.53
2022-10-09T18:24:25.342Z,97867.22
2022-10-09T18:29:28.892Z,97857.84
2022-10-09T18:34:38.926Z,97848.25
2022-10-09T18:39:43.465Z,97837.69
2022-10-09T18:44:47.147Z,97838.50
2022-10-09T18:49:57.165Z,97833.91
2022-10-09T18:55:02.263Z,97829.94
2022-10-09T19:00:07.099Z,97822.91
2022-10-09T19:05:12.064Z,97823.59
2022-10-09T19:10:15.653Z,97810.84
2022-10-09T19:15:20.843Z,97815.41
2022-10-09T19:20:28.935Z,97800.25
2022-10-09T19:25:32.365Z,97801.94
2022-10-09T19:30:35.862Z,97792.69
2022-10-09T19:35:47.309Z,97792.19
2022-10-09T19:40:51.699Z,97790.00
2022-10-09T19:46:02.784Z,97787.59
2022-10-09T19:51:09.509Z,97783.88
2022-10-09T19:56:16.387Z,97780.25
2022-10-09T20:01:23.378Z,97778.31
2022-10-09T20:06:31.423Z,97778.38
2022-10-09T20:11:36.838Z,97776.66
2022-10-09T20:16:40.381Z,97776.78
2022-10-09T20:21:45.204Z,97775.16
2022-10-09T20:26:49.130Z,97779.84
2022-10-09T20:31:52.796Z,97777.59
2022-10-09T20:36:57.800Z,97769.50
2022-10-09T20:42:01.457Z,97764.03
2022-10-09T20:47:06.093Z,97766.94
2022-10-09T20:52:11.853Z,97763.78
2022-10-09T20:57:15.419Z,97753.28
2022-10-09T21:02:19.484Z,97742.28
2022-10-09T21:07:24.807Z,97745.72
2022-10-09T21:12:28.487Z,97743.91
2022-10-09T21:17:33.126Z,97743.06
2022-10-09T21:22:38.100Z,97732.94
2022-10-09T21:27:41.543Z,97738.41
2022-10-09T21:32:45.241Z,97732.28
2022-10-09T21:37:50.882Z,97738.16
2022-10-09T21:42:54.233Z,97731.56
2022-10-09T21:47:57.891Z,97729.19
2022-10-09T21:53:03.148Z,97717.44
2022-10-09T21:58:06.846Z,97711.16
2022-10-09T22:03:10.267Z,97709.03
2022-10-09T22:08:15.179Z,97700.84
2022-10-09T22:13:21.577Z,97692.88
2022-10-09T22:18:25.615Z,97689.47
2022-10-09T22:23:33.049Z,97680.91
2022-10-09T22:28:36.717Z,97677.03
2022-10-09T22:33:40.628Z,97675.53
2022-10-09T22:38:45.948Z,97678.44
2022-10-09T22:43:51.558Z,97665.47
2022-10-09T22:48:54.944Z,97668.50
2022-10-09T22:54:01.100Z,97677.31
2022-10-09T22:59:05.165Z,97670.97
2022-10-09T23:04:12.416Z,97670.63
2022-10-09T23:09:17.107Z,97660.63
2022-10-09T23:14:20.961Z,97652.09
2022-10-09T23:19:25.983Z,97651.72
2022-10-09T23:24:30.737Z,97647.03
2022-10-09T23:29:34.088Z,97638.72
2022-10-09T23:34:37.506Z,97641.69
2022-10-09T23:39:42.078Z,97633.66
2022-10-09T23:44:45.432Z,97633.59
2022-10-09T23:49:48.885Z,97626.34
2022-10-09T23:54:53.595Z,97633.03
2022-10-09T23:59:56.986Z,97615.34
